Lanark, West Virginia
Current Conditions -  °F | °C
As of 11:16 PM on Wednesday 22 Oct 2014 (Local Time) from KBKW Reporting Station
Light Rain Light Rain  
Wind Chill: 38°   Ceiling: 800
Heat Index: 42°   Visibility: 7mi
Dew Point: 40°   Wind: 7mph
Humidity: 92%   Direction: 350°N
Pressure: 30.18"   Gusts: NA
Location:  37.83°N, 81.15°W
Report Text: KBKW 230316Z AUTO 35006KT 7SM -RA OVC008 06/04 A3018 RMK AO2 RAB14 CIG 007V010 P0000 T00560044 TSNO
Loading
Personal Weather Stations






























Interactive Weather Map
Tropical Storm Tracking
New forecast layout! Learn more

10-Day Weather Forecast

Advertisements
Track Severe Weather on mobile